Aviation Digital Data Service (ADDS)

Output produced by METARs form (2200 UTC 18 October 2017)
found at http://www.aviationweather.gov/adds/metars/
 
KLGA 182115Z 1821/1918 20009KT P6SM SKC 
     FM190300 23006KT P6SM SKC 
     FM191700 23010G17KT P6SM FEW250